Time;durP1;ratioP1;P1;durP2;ratioP2;P2;SDS_P1;SDS_P2;PMS_P1;PMS_P2;Temp;Humidity;BMP_temperature;BMP_pressure;BME280_temperature;BME280_humidity;BME280_pressure;Samples;Min_cycle;Max_cycle;Signal;HPM_P1;HPM_P2
2022/07/02 00:02:11;;;;;;;2.10;1.90;;;23.30;70.00;;;;;;5093289;28;20077;-59
2022/07/02 00:04:40;;;;;;;2.65;2.42;;;23.20;69.80;;;;;;5099084;28;20458;-59
2022/07/02 00:07:07;;;;;;;2.92;2.28;;;23.20;69.50;;;;;;5109502;28;20031;-59
2022/07/02 00:09:32;;;;;;;3.03;2.30;;;23.20;69.40;;;;;;5098769;28;20128;-59
2022/07/02 00:11:59;;;;;;;2.90;2.60;;;23.20;69.30;;;;;;5098648;28;20024;-59
2022/07/02 00:14:25;;;;;;;2.83;2.20;;;23.20;69.30;;;;;;5114486;28;20036;-59
2022/07/02 00:16:55;;;;;;;2.28;2.08;;;23.20;69.40;;;;;;5110472;28;20023;-59
2022/07/02 00:19:22;;;;;;;3.15;2.70;;;23.20;69.40;;;;;;5099203;28;20411;-59
2022/07/02 00:21:48;;;;;;;2.70;2.47;;;23.20;69.40;;;;;;5108288;28;20024;-59
2022/07/02 00:24:14;;;;;;;3.25;2.67;;;23.20;69.20;;;;;;5105999;27;20028;-59
2022/07/02 00:26:54;;;;;;;2.75;2.42;;;23.10;68.80;;;;;;5100038;28;20442;-59
2022/07/02 00:29:22;;;;;;;3.35;2.80;;;23.10;69.40;;;;;;5096816;28;20032;-58
2022/07/02 00:31:49;;;;;;;2.53;2.33;;;23.10;68.80;;;;;;5107677;28;20034;-58
2022/07/02 00:34:16;;;;;;;3.63;2.60;;;23.00;69.00;;;;;;5106073;28;20035;-59
2022/07/02 00:36:43;;;;;;;2.90;2.60;;;23.00;69.10;;;;;;5114358;28;20107;-58
2022/07/02 00:39:09;;;;;;;2.40;2.20;;;23.00;69.10;;;;;;5108270;28;20024;-59
2022/07/02 00:41:35;;;;;;;3.10;2.70;;;23.00;69.20;;;;;;5104371;28;20027;-59
2022/07/02 00:44:02;;;;;;;2.85;2.20;;;23.00;69.10;;;;;;5111795;28;20032;-59
2022/07/02 00:46:29;;;;;;;3.00;2.50;;;23.00;69.00;;;;;;5113531;28;20034;-59
2022/07/02 00:48:55;;;;;;;2.88;2.38;;;23.00;68.90;;;;;;5110108;28;20027;-59
2022/07/02 00:51:21;;;;;;;3.08;2.55;;;23.00;68.80;;;;;;5108653;28;20026;-59
2022/07/02 00:53:47;;;;;;;2.83;2.53;;;22.90;68.60;;;;;;5110605;28;20027;-58
2022/07/02 00:56:13;;;;;;;2.92;2.55;;;22.90;68.50;;;;;;5108893;28;20039;-59
2022/07/02 00:58:39;;;;;;;3.50;2.80;;;22.90;68.50;;;;;;5107381;27;20471;-59
2022/07/02 01:01:04;;;;;;;3.60;2.63;;;22.90;68.40;;;;;;5112956;28;20046;-59
2022/07/02 01:03:31;;;;;;;3.03;2.50;;;22.90;68.50;;;;;;5100025;28;20024;-59
2022/07/02 01:05:57;;;;;;;3.58;2.67;;;22.80;67.80;;;;;;5110747;27;20073;-59
2022/07/02 01:11:11;;;;;;;3.45;2.53;;;22.70;67.90;;;;;;5103224;28;20080;-58
2022/07/02 01:13:38;;;;;;;3.33;2.85;;;22.60;67.80;;;;;;5101531;28;20082;-59
2022/07/02 01:16:04;;;;;;;3.25;2.72;;;22.50;68.10;;;;;;5077843;28;20073;-59
2022/07/02 01:18:30;;;;;;;3.75;2.72;;;22.50;67.70;;;;;;5101477;28;20044;-59
2022/07/02 01:20:56;;;;;;;3.95;2.63;;;22.50;67.20;;;;;;5108018;28;20038;-59
2022/07/02 01:23:21;;;;;;;4.13;2.60;;;22.40;67.20;;;;;;5111441;28;20028;-58
2022/07/02 01:25:51;;;;;;;3.05;2.33;;;22.40;67.40;;;;;;5102992;28;20077;-58
2022/07/02 01:28:17;;;;;;;3.25;2.70;;;22.30;67.30;;;;;;5105637;28;20386;-59
2022/07/02 01:30:43;;;;;;;3.03;2.72;;;22.30;67.30;;;;;;5105011;28;20049;-59
2022/07/02 01:33:09;;;;;;;3.10;2.55;;;22.30;67.30;;;;;;5099902;28;20032;-59
2022/07/02 01:35:34;;;;;;;2.50;2.30;;;22.30;67.30;;;;;;5114244;28;20392;-59
2022/07/02 01:38:00;;;;;;;2.53;2.30;;;22.20;67.20;;;;;;5107779;28;20031;-59
2022/07/02 01:40:26;;;;;;;4.47;2.50;;;22.20;67.30;;;;;;5109282;28;20127;-59
2022/07/02 01:42:52;;;;;;;3.28;2.40;;;22.20;67.20;;;;;;5103440;28;20062;-59
2022/07/02 01:45:18;;;;;;;2.45;2.25;;;22.20;67.20;;;;;;5109178;28;20483;-58
2022/07/02 01:47:43;;;;;;;2.42;2.22;;;22.20;67.00;;;;;;5100907;28;20035;-59
2022/07/02 01:50:09;;;;;;;3.30;2.72;;;22.20;66.80;;;;;;5110425;28;20382;-59
2022/07/02 01:52:35;;;;;;;2.80;2.50;;;22.20;67.00;;;;;;5109352;28;20502;-59
2022/07/02 01:55:01;;;;;;;2.38;2.17;;;22.10;67.20;;;;;;5102138;28;20037;-59
2022/07/02 01:57:30;;;;;;;2.92;2.58;;;22.10;67.30;;;;;;5113172;28;20028;-59
2022/07/02 01:59:56;;;;;;;3.15;2.22;;;22.10;67.40;;;;;;5118969;27;20027;-57
2022/07/02 02:02:22;;;;;;;2.88;2.50;;;22.10;67.40;;;;;;5109075;27;20107;-59
2022/07/02 02:04:48;;;;;;;2.75;2.55;;;22.10;67.40;;;;;;5085215;28;20032;-59
2022/07/02 02:07:14;;;;;;;3.13;2.83;;;22.10;67.20;;;;;;5110095;28;20040;-59
2022/07/02 02:09:39;;;;;;;2.50;2.30;;;22.10;67.50;;;;;;5109285;28;20028;-58
2022/07/02 02:12:06;;;;;;;2.58;2.38;;;22.00;67.70;;;;;;5101111;28;20046;-59
2022/07/02 02:14:32;;;;;;;2.40;2.20;;;22.00;67.70;;;;;;5107732;28;20026;-59
2022/07/02 02:16:58;;;;;;;3.17;2.20;;;22.00;67.80;;;;;;5102076;28;20110;-59
2022/07/02 02:19:23;;;;;;;2.20;2.00;;;22.00;67.70;;;;;;5099714;28;20023;-59
2022/07/02 02:21:49;;;;;;;2.90;2.47;;;22.00;67.70;;;;;;5099444;28;20100;-59
2022/07/02 02:24:15;;;;;;;2.25;2.05;;;22.00;67.50;;;;;;5102829;28;20491;-59
2022/07/02 02:26:41;;;;;;;3.38;2.42;;;22.00;67.70;;;;;;5102034;28;20028;-58
2022/07/02 02:29:07;;;;;;;2.53;2.30;;;22.00;67.70;;;;;;5107294;28;20031;-58
2022/07/02 02:31:32;;;;;;;3.38;2.53;;;22.00;67.70;;;;;;5094819;28;20020;-59
2022/07/02 02:33:58;;;;;;;2.67;2.30;;;22.00;67.50;;;;;;5104582;28;20103;-59
2022/07/02 02:36:24;;;;;;;3.58;2.75;;;22.00;67.80;;;;;;5104945;28;20097;-59
2022/07/02 02:38:49;;;;;;;2.95;2.65;;;22.10;67.20;;;;;;5108667;28;20019;-59
2022/07/02 02:41:15;;;;;;;3.55;2.70;;;22.10;66.00;;;;;;5105114;28;20063;-59
2022/07/02 02:43:42;;;;;;;4.15;2.53;;;22.10;65.60;;;;;;5100772;28;20043;-59
2022/07/02 02:46:07;;;;;;;2.97;2.55;;;22.10;65.50;;;;;;5103107;28;20035;-59
2022/07/02 02:48:35;;;;;;;3.53;2.50;;;22.10;65.80;;;;;;5104318;28;20024;-59
2022/07/02 02:51:01;;;;;;;5.72;2.40;;;22.20;65.80;;;;;;5110779;28;20472;-59
2022/07/02 02:53:26;;;;;;;3.10;2.33;;;22.20;65.70;;;;;;5108780;28;20031;-58
2022/07/02 02:55:52;;;;;;;2.45;2.10;;;22.30;65.50;;;;;;5113440;28;20087;-59
2022/07/02 02:58:18;;;;;;;2.33;2.13;;;22.30;65.70;;;;;;5109083;28;20080;-59
2022/07/02 03:00:44;;;;;;;2.55;2.33;;;22.40;65.70;;;;;;5112933;28;20394;-59
2022/07/02 03:03:10;;;;;;;5.13;2.55;;;22.40;65.70;;;;;;5106868;28;20019;-59
2022/07/02 03:05:35;;;;;;;3.58;2.30;;;22.40;65.80;;;;;;5100386;28;20046;-58
2022/07/02 03:08:01;;;;;;;3.53;2.40;;;22.40;65.70;;;;;;5106120;28;20035;-59
2022/07/02 03:10:26;;;;;;;3.22;2.45;;;22.40;65.70;;;;;;5109751;28;20029;-59
2022/07/02 03:12:52;;;;;;;6.60;2.40;;;22.50;65.70;;;;;;5104471;28;20101;-59
2022/07/02 03:15:18;;;;;;;3.65;2.33;;;22.40;65.80;;;;;;5106207;28;20031;-59
2022/07/02 03:17:44;;;;;;;2.50;2.20;;;22.50;65.70;;;;;;5101052;28;20027;-59
2022/07/02 03:20:10;;;;;;;3.13;2.40;;;22.50;65.50;;;;;;5105020;28;20105;-59
2022/07/02 03:22:35;;;;;;;2.38;2.08;;;22.50;65.30;;;;;;5098455;28;20621;-59
2022/07/02 03:25:01;;;;;;;2.17;2.00;;;22.50;65.30;;;;;;5104320;28;20107;-59
2022/07/02 03:27:27;;;;;;;2.65;2.03;;;22.50;65.30;;;;;;5105064;28;20031;-59
2022/07/02 03:29:52;;;;;;;5.00;2.20;;;22.60;65.40;;;;;;5108064;28;20022;-59
2022/07/02 03:32:20;;;;;;;2.67;2.15;;;22.60;65.30;;;;;;5098913;28;20053;-59
2022/07/02 03:34:46;;;;;;;2.15;2.00;;;22.70;65.70;;;;;;5104939;28;20032;-59
2022/07/02 03:37:11;;;;;;;3.03;2.15;;;22.90;66.10;;;;;;5083459;28;20101;-58
2022/07/02 03:39:37;;;;;;;2.35;2.15;;;23.10;65.80;;;;;;5108599;28;20391;-59
2022/07/02 03:42:03;;;;;;;2.35;2.10;;;23.40;65.80;;;;;;5098492;28;20494;-59
2022/07/02 03:44:29;;;;;;;3.63;2.63;;;23.80;65.20;;;;;;5103077;28;20119;-57
2022/07/02 03:46:54;;;;;;;2.90;2.40;;;24.20;63.90;;;;;;5101393;28;20031;-59
2022/07/02 03:49:20;;;;;;;2.60;2.15;;;24.70;63.40;;;;;;5109355;28;20084;-59
2022/07/02 03:51:46;;;;;;;2.35;2.15;;;25.40;62.80;;;;;;5111158;28;20080;-58
2022/07/02 03:54:11;;;;;;;2.67;2.15;;;26.10;61.00;;;;;;5109608;27;20429;-58
2022/07/02 03:56:37;;;;;;;3.13;2.00;;;26.80;59.40;;;;;;5115933;28;20536;-59
2022/07/02 03:59:03;;;;;;;3.25;1.90;;;27.40;58.50;;;;;;5111678;27;20028;-59
2022/07/02 04:01:28;;;;;;;2.13;1.92;;;28.00;57.50;;;;;;5110322;27;20517;-58
2022/07/02 04:03:54;;;;;;;2.20;2.00;;;28.50;56.40;;;;;;5101024;28;20064;-59
2022/07/02 04:06:20;;;;;;;2.53;2.10;;;28.80;56.20;;;;;;5111645;28;20035;-59
2022/07/02 04:08:45;;;;;;;3.05;2.30;;;29.10;55.10;;;;;;5106855;28;20047;-59
2022/07/02 04:11:11;;;;;;;2.40;2.20;;;29.60;54.90;;;;;;5114356;28;20028;-59
2022/07/02 04:13:37;;;;;;;3.05;2.08;;;30.00;53.80;;;;;;5114781;28;20431;-59
2022/07/02 04:16:03;;;;;;;2.10;1.90;;;30.40;53.10;;;;;;5104824;28;20019;-59
2022/07/02 04:18:28;;;;;;;2.58;2.10;;;30.70;52.50;;;;;;5108349;28;20028;-59
2022/07/02 04:20:54;;;;;;;1.75;1.45;;;31.00;52.00;;;;;;5106268;28;20023;-59
2022/07/02 04:23:20;;;;;;;2.83;1.80;;;31.30;51.50;;;;;;5107456;27;20028;-59
2022/07/02 04:25:45;;;;;;;2.65;1.98;;;31.60;51.10;;;;;;5112636;28;20426;-59
2022/07/02 04:28:12;;;;;;;2.10;1.90;;;31.90;51.10;;;;;;5112248;28;20023;-59
2022/07/02 04:30:38;;;;;;;3.10;2.20;;;32.20;50.30;;;;;;5106058;28;20020;-59
2022/07/02 04:33:03;;;;;;;2.33;2.00;;;32.60;49.20;;;;;;5103160;28;20027;-60
2022/07/02 04:35:30;;;;;;;2.42;2.05;;;32.70;48.40;;;;;;5098354;28;20023;-59
2022/07/02 04:37:55;;;;;;;2.58;1.77;;;32.70;48.90;;;;;;5095946;28;20643;-60
2022/07/02 04:40:21;;;;;;;2.10;1.90;;;33.00;48.40;;;;;;5110699;28;20034;-59
2022/07/02 04:42:47;;;;;;;2.00;1.80;;;33.10;48.10;;;;;;5101580;28;20051;-59
2022/07/02 04:45:12;;;;;;;2.15;1.75;;;33.30;48.30;;;;;;5102601;28;20070;-57
2022/07/02 04:47:38;;;;;;;1.77;1.63;;;33.60;48.20;;;;;;5107448;28;20521;-57
2022/07/02 04:50:04;;;;;;;2.22;1.67;;;34.00;47.70;;;;;;5107866;27;20031;-57
2022/07/02 04:52:30;;;;;;;2.40;2.15;;;34.10;47.10;;;;;;5117945;27;20026;-57
2022/07/02 04:54:55;;;;;;;2.95;1.85;;;34.50;47.10;;;;;;5111729;27;20028;-57
2022/07/02 04:57:21;;;;;;;2.03;1.55;;;34.70;46.60;;;;;;5099910;28;20147;-57
2022/07/02 04:59:47;;;;;;;3.20;1.98;;;35.00;46.40;;;;;;5104732;28;20034;-58
2022/07/02 05:02:12;;;;;;;1.80;1.70;;;35.40;45.80;;;;;;5104898;27;20027;-58
2022/07/02 05:04:39;;;;;;;2.05;1.80;;;35.60;45.20;;;;;;5105885;28;20028;-58
2022/07/02 05:07:04;;;;;;;2.55;2.10;;;35.70;44.60;;;;;;5103417;28;20483;-58
2022/07/02 05:09:30;;;;;;;2.33;1.88;;;35.50;44.20;;;;;;5110202;27;20034;-58
2022/07/02 05:11:56;;;;;;;2.20;2.00;;;35.40;44.40;;;;;;5106680;28;20502;-58
2022/07/02 05:14:22;;;;;;;2.80;2.03;;;35.50;44.20;;;;;;5100656;28;20027;-58
2022/07/02 05:16:47;;;;;;;2.05;1.63;;;35.50;43.80;;;;;;5105503;28;20094;-58
2022/07/02 05:19:13;;;;;;;1.88;1.60;;;35.50;43.60;;;;;;5101242;28;20117;-58
2022/07/02 05:21:41;;;;;;;2.10;1.90;;;35.40;43.40;;;;;;5106930;28;20011;-58
2022/07/02 05:24:07;;;;;;;2.30;2.10;;;35.40;43.20;;;;;;5099380;28;20391;-58
2022/07/02 05:26:33;;;;;;;2.05;1.75;;;35.40;42.50;;;;;;5099222;28;20031;-58
2022/07/02 05:28:59;;;;;;;2.05;1.85;;;34.90;41.90;;;;;;5096899;28;20024;-58
2022/07/02 05:31:25;;;;;;;3.15;1.60;;;34.00;42.30;;;;;;5104557;28;20020;-58
2022/07/02 05:33:50;;;;;;;1.95;1.63;;;33.00;43.40;;;;;;5102247;28;20077;-58
2022/07/02 05:36:16;;;;;;;2.10;1.90;;;32.10;44.10;;;;;;5100751;28;20036;-58
2022/07/02 05:38:42;;;;;;;1.88;1.77;;;31.30;45.00;;;;;;5101365;28;20476;-58
2022/07/02 05:41:07;;;;;;;3.38;2.05;;;30.50;45.60;;;;;;5112152;28;20387;-58
2022/07/02 05:43:33;;;;;;;3.58;1.83;;;29.90;46.50;;;;;;5109690;28;20122;-58
2022/07/02 05:45:59;;;;;;;4.97;1.98;;;29.20;47.00;;;;;;5110627;28;20066;-58
2022/07/02 05:48:25;;;;;;;1.92;1.80;;;28.60;47.80;;;;;;5104116;27;20567;-59
2022/07/02 05:50:50;;;;;;;1.67;1.58;;;28.20;48.60;;;;;;5103147;28;20028;-58
2022/07/02 05:53:16;;;;;;;2.13;1.90;;;27.80;49.10;;;;;;5107724;27;20027;-59
2022/07/02 05:55:42;;;;;;;2.70;2.20;;;27.40;49.60;;;;;;5107469;28;20016;-58
2022/07/02 05:58:08;;;;;;;2.10;1.90;;;27.20;49.90;;;;;;5108775;28;20024;-59
2022/07/02 06:00:34;;;;;;;3.53;2.22;;;26.90;49.90;;;;;;5100343;28;20422;-58
2022/07/02 06:03:00;;;;;;;4.20;2.22;;;26.60;50.50;;;;;;5099705;28;20012;-58
2022/07/02 06:08:09;;;;;;;2.72;1.88;;;26.30;51.10;;;;;;5102102;28;20081;-57
2022/07/02 06:10:35;;;;;;;2.20;2.00;;;26.20;51.30;;;;;;5094057;27;20025;-58
2022/07/02 06:13:01;;;;;;;3.13;2.05;;;26.00;51.30;;;;;;5096004;28;20024;-58
2022/07/02 06:15:27;;;;;;;2.28;2.08;;;25.80;51.80;;;;;;5092739;27;20477;-59
2022/07/02 06:17:53;;;;;;;3.47;2.10;;;25.70;51.80;;;;;;5091480;28;20036;-57
2022/07/02 06:20:19;;;;;;;2.22;2.00;;;25.70;52.20;;;;;;5094342;28;20069;-58
2022/07/02 06:22:44;;;;;;;2.63;1.95;;;25.60;52.70;;;;;;5096263;27;20055;-59
2022/07/02 06:25:10;;;;;;;2.25;2.05;;;25.60;52.60;;;;;;5095982;27;20028;-59
2022/07/02 06:27:36;;;;;;;2.63;2.20;;;25.40;52.70;;;;;;5093922;27;20942;-58
2022/07/02 06:30:05;;;;;;;2.03;1.83;;;25.40;52.80;;;;;;5092987;27;20495;-60
2022/07/02 06:32:31;;;;;;;3.20;2.15;;;25.30;52.80;;;;;;5098397;28;20024;-59
2022/07/02 06:34:57;;;;;;;3.08;2.20;;;25.30;52.70;;;;;;5099037;27;20059;-59
2022/07/02 06:37:24;;;;;;;1.70;1.60;;;25.20;52.80;;;;;;5098386;28;20082;-59
2022/07/02 06:39:50;;;;;;;4.65;2.10;;;25.00;53.00;;;;;;5099275;27;20535;-59
2022/07/02 06:42:19;;;;;;;1.90;1.70;;;25.00;53.20;;;;;;5095805;28;20139;-59
2022/07/02 06:44:53;;;;;;;2.95;1.98;;;24.80;53.10;;;;;;5100899;27;20126;-59
2022/07/02 06:47:20;;;;;;;1.70;1.60;;;24.80;53.40;;;;;;5090729;27;20032;-58
2022/07/02 06:49:48;;;;;;;2.53;1.80;;;24.80;53.70;;;;;;5093634;28;20047;-58
2022/07/02 06:52:14;;;;;;;3.40;2.00;;;24.80;53.60;;;;;;5102444;27;20475;-60
2022/07/02 06:54:40;;;;;;;2.17;1.85;;;24.80;53.40;;;;;;5101172;27;20028;-60
2022/07/02 06:57:06;;;;;;;2.50;2.05;;;24.80;53.40;;;;;;5110402;27;20046;-61
2022/07/02 06:59:32;;;;;;;1.95;1.83;;;24.90;53.70;;;;;;5095339;28;20057;-60
2022/07/02 07:01:59;;;;;;;2.38;1.60;;;25.00;53.50;;;;;;5095135;28;20027;-59
2022/07/02 07:04:27;;;;;;;1.60;1.50;;;25.00;53.30;;;;;;5095455;28;20028;-58
2022/07/02 07:06:54;;;;;;;1.80;1.70;;;25.00;52.80;;;;;;5096007;28;20027;-59
2022/07/02 07:09:20;;;;;;;2.40;1.88;;;24.80;52.00;;;;;;5099975;28;20027;-59
2022/07/02 07:11:46;;;;;;;3.17;2.05;;;24.80;52.40;;;;;;5092799;28;20032;-59
2022/07/02 07:14:12;;;;;;;2.60;1.65;;;24.70;52.50;;;;;;5095208;28;20042;-59
2022/07/02 07:16:38;;;;;;;4.10;2.30;;;24.60;52.30;;;;;;5094544;28;20023;-59
2022/07/02 07:19:07;;;;;;;1.88;1.75;;;24.60;52.30;;;;;;5092552;28;20027;-59
2022/07/02 07:21:33;;;;;;;2.60;1.70;;;24.60;51.50;;;;;;5094205;28;20126;-59
2022/07/02 07:23:59;;;;;;;2.00;1.80;;;24.60;51.50;;;;;;5098382;27;20024;-59
2022/07/02 07:26:24;;;;;;;1.98;1.67;;;24.60;51.70;;;;;;5095266;28;20035;-59
2022/07/02 07:28:50;;;;;;;1.70;1.60;;;24.60;51.80;;;;;;5092248;28;20074;-59
2022/07/02 07:31:19;;;;;;;1.70;1.60;;;24.60;52.00;;;;;;5098229;28;20475;-59
2022/07/02 07:33:49;;;;;;;1.73;1.63;;;24.60;51.90;;;;;;5090842;28;20093;-58
2022/07/02 07:36:14;;;;;;;1.95;1.70;;;24.60;51.40;;;;;;5091711;28;20028;-59
2022/07/02 07:38:40;;;;;;;1.90;1.60;;;24.60;51.20;;;;;;5090163;28;20402;-59
2022/07/02 07:41:06;;;;;;;1.85;1.73;;;24.60;51.30;;;;;;5096450;28;20121;-59
2022/07/02 07:43:32;;;;;;;2.00;1.70;;;24.60;51.10;;;;;;5097513;28;20119;-59
2022/07/02 07:45:58;;;;;;;1.90;1.70;;;24.60;51.20;;;;;;5097131;28;20523;-60
2022/07/02 07:48:23;;;;;;;1.67;1.58;;;24.60;51.20;;;;;;5076275;28;20748;-59
2022/07/02 07:50:50;;;;;;;1.80;1.55;;;24.60;51.30;;;;;;5090907;28;20035;-59
2022/07/02 07:53:16;;;;;;;3.25;1.65;;;24.60;51.10;;;;;;5089032;28;20035;-59
2022/07/02 07:55:41;;;;;;;1.90;1.60;;;24.60;51.10;;;;;;5094682;28;20055;-59
2022/07/02 07:58:07;;;;;;;2.25;1.60;;;24.60;50.90;;;;;;5092803;28;20122;-59
2022/07/02 08:00:33;;;;;;;1.63;1.52;;;24.60;50.90;;;;;;5095366;28;20078;-59
2022/07/02 08:02:59;;;;;;;1.85;1.42;;;24.70;51.00;;;;;;5077436;28;20054;-59
2022/07/02 08:05:25;;;;;;;1.75;1.63;;;24.70;51.10;;;;;;5097765;28;20028;-59
2022/07/02 08:07:51;;;;;;;1.42;1.33;;;24.70;51.10;;;;;;5102550;28;20038;-59
2022/07/02 08:10:17;;;;;;;2.83;1.60;;;24.80;51.10;;;;;;5097831;28;20483;-59
2022/07/02 08:12:43;;;;;;;1.42;1.33;;;24.80;50.90;;;;;;5095590;28;20024;-60
2022/07/02 08:15:09;;;;;;;1.83;1.70;;;24.80;50.40;;;;;;5097249;28;20563;-59
2022/07/02 08:17:37;;;;;;;1.45;1.35;;;24.80;50.60;;;;;;5093553;28;20479;-60
2022/07/02 08:20:05;;;;;;;4.47;1.88;;;24.80;50.70;;;;;;5098353;28;20027;-59
2022/07/02 08:22:34;;;;;;;2.28;1.77;;;24.80;50.50;;;;;;5093066;28;20028;-59
2022/07/02 08:25:00;;;;;;;1.67;1.58;;;24.80;50.40;;;;;;5076345;28;20040;-59
2022/07/02 08:27:26;;;;;;;1.75;1.65;;;24.80;50.60;;;;;;5086971;28;20088;-59
2022/07/02 08:29:52;;;;;;;3.00;2.00;;;24.80;50.60;;;;;;5094084;28;20433;-59
2022/07/02 08:32:18;;;;;;;1.88;1.77;;;24.70;50.30;;;;;;5090433;28;20019;-59
2022/07/02 08:34:44;;;;;;;2.20;2.00;;;24.70;50.40;;;;;;5090635;28;20034;-59
2022/07/02 08:37:10;;;;;;;3.10;2.33;;;24.60;50.20;;;;;;5093021;28;20035;-59
2022/07/02 08:39:36;;;;;;;2.72;1.60;;;24.50;50.40;;;;;;5102352;27;20034;-60
2022/07/02 08:42:02;;;;;;;3.22;2.35;;;24.50;51.00;;;;;;5097146;28;20035;-59
2022/07/02 08:44:31;;;;;;;2.53;1.80;;;24.50;50.80;;;;;;5093169;27;20046;-60
2022/07/02 08:46:58;;;;;;;2.10;1.77;;;24.40;50.90;;;;;;5094801;27;20411;-59
2022/07/02 08:49:26;;;;;;;2.08;1.88;;;24.40;51.00;;;;;;5097112;27;20095;-59
2022/07/02 08:54:27;;;;;;;2.72;1.63;;;24.40;51.00;;;;;;5098285;27;20023;-59
2022/07/02 08:56:54;;;;;;;3.90;2.15;;;24.40;51.10;;;;;;5104718;27;20446;-59
2022/07/02 08:59:20;;;;;;;4.13;2.00;;;24.40;51.10;;;;;;5103238;27;20030;-59
2022/07/02 09:01:47;;;;;;;1.70;1.60;;;24.40;51.10;;;;;;5099205;27;20032;-59
2022/07/02 09:04:14;;;;;;;2.10;1.80;;;24.40;51.30;;;;;;5094962;27;22305;-59
2022/07/02 09:06:41;;;;;;;2.30;2.10;;;24.40;51.30;;;;;;5091113;27;20422;-59
2022/07/02 09:09:08;;;;;;;2.85;1.85;;;24.40;51.00;;;;;;5096819;27;20040;-59
2022/07/02 09:11:34;;;;;;;2.17;1.98;;;24.40;50.90;;;;;;5105087;27;20171;-59
2022/07/02 09:14:01;;;;;;;1.80;1.70;;;24.30;50.90;;;;;;5100380;27;20514;-60
2022/07/02 09:16:27;;;;;;;2.15;1.73;;;24.30;50.90;;;;;;5099253;28;20027;-59
2022/07/02 09:18:53;;;;;;;2.45;1.67;;;24.30;51.10;;;;;;5093563;27;20420;-59
2022/07/02 09:21:19;;;;;;;4.88;2.00;;;24.30;51.10;;;;;;5098926;28;20055;-59
2022/07/02 09:23:46;;;;;;;1.55;1.45;;;24.30;51.10;;;;;;5095540;27;20055;-59
2022/07/02 09:26:19;;;;;;;1.75;1.65;;;24.20;51.00;;;;;;5093866;28;20031;-59
2022/07/02 09:29:11;;;;;;;2.25;1.85;;;24.20;51.00;;;;;;5098381;27;20510;-60
2022/07/02 09:31:48;;;;;;;4.07;1.40;;;24.20;50.40;;;;;;5096048;27;20041;-59
2022/07/02 09:34:27;;;;;;;1.63;1.45;;;24.20;50.70;;;;;;5103288;27;20042;-59
2022/07/02 09:36:53;;;;;;;2.75;1.98;;;24.20;50.60;;;;;;5099214;27;20021;-59
2022/07/02 09:39:30;;;;;;;1.70;1.60;;;24.20;51.00;;;;;;5102272;27;22227;-58
2022/07/02 09:41:56;;;;;;;1.90;1.80;;;24.30;50.90;;;;;;5099073;28;20043;-59
2022/07/02 09:44:22;;;;;;;1.90;1.80;;;24.30;50.80;;;;;;5097873;27;20035;-59
2022/07/02 09:46:48;;;;;;;1.80;1.70;;;24.30;51.00;;;;;;5091133;27;20023;-59
2022/07/02 09:49:15;;;;;;;1.65;1.55;;;24.30;51.10;;;;;;5096248;27;20035;-59
2022/07/02 09:51:51;;;;;;;1.50;1.40;;;24.30;50.90;;;;;;5095508;27;20077;-59
2022/07/02 09:54:19;;;;;;;1.67;1.52;;;24.30;50.90;;;;;;5077827;28;20028;-60
2022/07/02 09:56:55;;;;;;;1.98;1.60;;;24.40;51.20;;;;;;5100108;27;20490;-59
2022/07/02 09:59:22;;;;;;;1.15;1.13;;;24.40;51.30;;;;;;5101194;27;20032;-59
2022/07/02 10:01:49;;;;;;;2.55;1.85;;;24.40;51.20;;;;;;5099225;27;20104;-60
2022/07/02 10:04:15;;;;;;;1.30;1.20;;;24.40;51.00;;;;;;5097469;27;20028;-59
2022/07/02 10:06:43;;;;;;;1.52;1.42;;;24.40;51.10;;;;;;5104698;27;20027;-58
2022/07/02 10:09:11;;;;;;;1.42;1.33;;;24.50;51.00;;;;;;5099092;27;20444;-59
2022/07/02 10:11:37;;;;;;;2.05;1.70;;;24.40;51.20;;;;;;5098181;27;20031;-59
2022/07/02 10:14:04;;;;;;;1.85;1.55;;;24.40;51.30;;;;;;5091840;27;20028;-59
2022/07/02 10:16:31;;;;;;;1.70;1.60;;;24.40;51.20;;;;;;5104057;27;20019;-59
2022/07/02 10:18:59;;;;;;;1.58;1.48;;;24.40;51.00;;;;;;5091640;28;20383;-59
2022/07/02 10:21:26;;;;;;;1.65;1.55;;;24.40;51.00;;;;;;5110991;27;20038;-58
2022/07/02 10:23:52;;;;;;;1.55;1.45;;;24.40;51.20;;;;;;5095772;27;20024;-59
2022/07/02 10:26:18;;;;;;;1.40;1.30;;;24.40;51.40;;;;;;5092758;27;20026;-59
2022/07/02 10:28:44;;;;;;;1.40;1.30;;;24.40;51.20;;;;;;5096138;28;20468;-59
2022/07/02 10:31:20;;;;;;;2.42;1.40;;;24.40;51.20;;;;;;5094464;28;20036;-59
2022/07/02 10:34:33;;;;;;;2.28;1.50;;;24.30;51.00;;;;;;5093773;28;20502;-59
2022/07/02 10:36:59;;;;;;;3.38;1.60;;;24.40;50.90;;;;;;5006036;28;20495;-59
2022/07/02 10:39:25;;;;;;;3.30;1.50;;;24.40;51.00;;;;;;5016841;28;20061;-59
2022/07/02 10:41:51;;;;;;;4.32;1.58;;;24.40;51.00;;;;;;5064127;27;20031;-59
2022/07/02 10:44:16;;;;;;;1.42;1.30;;;24.40;50.90;;;;;;5106935;27;20043;-59
2022/07/02 10:46:48;;;;;;;1.52;1.38;;;24.40;50.90;;;;;;5093253;28;20506;-59
2022/07/02 10:49:24;;;;;;;1.67;1.58;;;24.40;50.70;;;;;;5096443;27;20406;-59
2022/07/02 10:51:56;;;;;;;3.63;2.25;;;24.40;50.50;;;;;;5103354;27;20027;-59
2022/07/02 10:54:30;;;;;;;1.85;1.65;;;24.40;50.60;;;;;;5099684;27;20081;-59
2022/07/02 10:56:56;;;;;;;2.90;1.80;;;24.40;50.60;;;;;;5075926;28;20122;-59
2022/07/02 10:59:23;;;;;;;1.83;1.70;;;24.40;50.50;;;;;;5083620;28;20106;-59
2022/07/02 11:02:11;;;;;;;1.77;1.50;;;24.40;50.40;;;;;;5095299;27;20096;-59
2022/07/02 11:04:38;;;;;;;1.65;1.50;;;24.40;50.10;;;;;;5080150;28;20035;-59
2022/07/02 11:07:08;;;;;;;1.48;1.38;;;24.40;50.10;;;;;;5075149;28;20047;-59
2022/07/02 11:09:57;;;;;;;1.48;1.38;;;24.50;50.00;;;;;;5076042;28;20028;-59
2022/07/02 11:12:42;;;;;;;1.20;1.20;;;24.50;49.90;;;;;;5094448;28;20116;-60
2022/07/02 11:15:17;;;;;;;1.30;1.20;;;24.50;49.70;;;;;;5093053;28;20088;-59
2022/07/02 11:17:48;;;;;;;1.63;1.52;;;24.50;49.60;;;;;;5089515;27;20070;-60
2022/07/02 11:20:14;;;;;;;1.60;1.50;;;24.50;50.00;;;;;;5095250;28;20032;-59
2022/07/02 11:22:39;;;;;;;1.23;1.13;;;24.50;49.30;;;;;;5092760;28;20096;-59
2022/07/02 11:25:06;;;;;;;1.50;1.40;;;24.60;49.20;;;;;;5094789;28;20058;-59
2022/07/02 11:27:31;;;;;;;0.90;0.90;;;24.60;49.20;;;;;;5096069;28;20031;-59
2022/07/02 11:29:57;;;;;;;1.00;1.00;;;24.50;48.90;;;;;;5098594;28;20032;-59
2022/07/02 11:32:23;;;;;;;1.30;1.20;;;24.60;49.30;;;;;;5093112;28;20383;-59
2022/07/02 11:34:58;;;;;;;1.58;1.48;;;24.60;49.10;;;;;;5090016;28;20119;-59
2022/07/02 11:37:24;;;;;;;1.50;1.40;;;24.50;49.00;;;;;;5097889;28;20111;-59
2022/07/02 11:39:50;;;;;;;1.33;1.23;;;24.60;49.10;;;;;;5090825;28;20579;-59
2022/07/02 11:42:16;;;;;;;1.00;1.00;;;24.60;49.20;;;;;;5088431;28;20126;-59
2022/07/02 11:44:42;;;;;;;1.15;0.98;;;24.60;49.20;;;;;;5093020;28;20155;-59
2022/07/02 11:47:08;;;;;;;1.75;1.20;;;24.60;49.20;;;;;;5094593;28;20040;-59
2022/07/02 11:49:38;;;;;;;1.50;1.40;;;24.60;49.10;;;;;;5090597;28;20024;-59
2022/07/02 11:52:05;;;;;;;1.10;1.00;;;24.60;49.30;;;;;;5088306;28;20016;-59
2022/07/02 11:54:31;;;;;;;1.05;1.00;;;24.60;49.20;;;;;;5088606;28;20156;-59
2022/07/02 11:56:56;;;;;;;1.60;1.50;;;24.70;49.20;;;;;;5094501;28;20478;-59
2022/07/02 11:59:24;;;;;;;1.27;1.17;;;24.70;49.20;;;;;;5096726;28;20134;-59
2022/07/02 12:01:52;;;;;;;1.40;1.30;;;24.60;49.10;;;;;;5093271;28;20036;-59
2022/07/02 12:04:20;;;;;;;0.98;0.98;;;24.60;49.10;;;;;;5093662;28;20394;-59
2022/07/02 12:06:54;;;;;;;1.25;1.15;;;24.60;49.10;;;;;;5091709;28;20498;-59
2022/07/02 12:09:24;;;;;;;1.15;1.10;;;24.60;49.10;;;;;;5098086;27;20555;-59
2022/07/02 12:11:51;;;;;;;1.33;1.23;;;24.60;49.60;;;;;;5098311;27;20016;-59
2022/07/02 12:14:24;;;;;;;3.05;1.20;;;24.60;49.10;;;;;;5099843;27;20563;-58
2022/07/02 12:16:52;;;;;;;1.25;1.23;;;24.60;49.10;;;;;;5077646;28;20028;-58
2022/07/02 12:19:18;;;;;;;3.22;1.23;;;24.60;49.10;;;;;;5092399;27;20495;-58
2022/07/02 12:21:49;;;;;;;1.40;1.30;;;24.60;48.90;;;;;;5098495;27;20020;-58
2022/07/02 12:24:32;;;;;;;1.42;1.30;;;24.60;49.00;;;;;;5100458;27;20042;-59
2022/07/02 12:27:06;;;;;;;2.17;1.42;;;24.60;49.00;;;;;;5096234;27;20061;-59
2022/07/02 12:29:58;;;;;;;0.95;0.95;;;24.60;49.00;;;;;;5106578;27;20039;-59
2022/07/02 12:32:32;;;;;;;1.42;1.33;;;24.60;48.90;;;;;;5101273;27;20028;-59
2022/07/02 12:34:59;;;;;;;1.40;1.30;;;24.60;48.80;;;;;;5101053;27;20020;-57
2022/07/02 12:37:57;;;;;;;0.95;0.95;;;24.60;49.20;;;;;;5100759;27;20027;-59
2022/07/02 12:40:22;;;;;;;1.60;1.45;;;24.60;48.60;;;;;;5069400;28;20039;-59
2022/07/02 12:43:02;;;;;;;1.50;1.40;;;24.60;48.90;;;;;;5096899;27;20036;-57
2022/07/02 12:45:38;;;;;;;1.42;1.27;;;24.60;48.90;;;;;;5100477;27;20116;-58
2022/07/02 12:48:14;;;;;;;1.48;1.38;;;24.60;49.00;;;;;;5096119;27;20368;-59
2022/07/02 12:50:46;;;;;;;1.48;1.23;;;24.60;49.10;;;;;;5079379;27;20020;-59
2022/07/02 12:53:17;;;;;;;1.52;1.40;;;24.60;49.10;;;;;;5095596;27;20065;-59
2022/07/02 12:55:51;;;;;;;1.42;1.33;;;24.60;48.90;;;;;;5103625;27;20036;-59
2022/07/02 12:58:16;;;;;;;2.15;1.65;;;24.60;49.10;;;;;;5103062;27;20085;-59